Time;durP1;ratioP1;P1;durP2;ratioP2;P2;SDS_P1;SDS_P2;PMS_P1;PMS_P2;Temp;Humidity;BMP_temperature;BMP_pressure;BME280_temperature;BME280_humidity;BME280_pressure;Samples;Min_cycle;Max_cycle;Signal;HPM_P1;HPM_P2
2022/09/26 00:01:48;;;;;;;9.17;2.53;;;;;;;-145.18;100.00;46664.31;6211623;23;20005;-79
2022/09/26 00:04:32;;;;;;;4.60;2.77;;;;;;;-145.18;100.00;46666.25;6212466;23;20481;-80
2022/09/26 00:06:57;;;;;;;6.73;2.83;;;;;;;-145.18;100.00;46670.16;6212065;23;20004;-80
2022/09/26 00:09:24;;;;;;;5.63;2.23;;;;;;;-145.18;100.00;46664.31;6212438;23;20086;-80
2022/09/26 00:11:50;;;;;;;13.57;2.90;;;;;;;-145.18;100.00;46668.22;6213852;23;20013;-80
2022/09/26 00:14:25;;;;;;;6.50;2.53;;;;;;;-145.18;100.00;46664.31;6214224;23;20083;-80
2022/09/26 00:16:51;;;;;;;4.07;2.30;;;;;;;-145.18;100.00;46668.22;6213656;23;20005;-80
2022/09/26 00:19:16;;;;;;;7.20;2.23;;;;;;;-145.18;100.00;46670.16;6214045;23;20040;-80
2022/09/26 00:21:41;;;;;;;6.60;2.40;;;;;;;-145.18;100.00;46670.16;6213505;23;20035;-80
2022/09/26 00:24:07;;;;;;;5.93;2.20;;;;;;;-145.18;100.00;46674.06;6214205;23;20040;-78
2022/09/26 00:26:34;;;;;;;8.57;2.03;;;;;;;-145.18;100.00;46668.22;6213608;23;20005;-81
2022/09/26 00:29:03;;;;;;;4.83;2.00;;;;;;;-145.18;100.00;46674.06;6213868;23;20008;-80
2022/09/26 00:31:32;;;;;;;10.00;2.07;;;;;;;-145.18;100.00;46677.97;6213695;23;20008;-80
2022/09/26 00:33:58;;;;;;;7.67;2.80;;;;;;;-145.18;100.00;46676.03;6214192;23;20032;-80
2022/09/26 00:36:24;;;;;;;6.77;2.30;;;;;;;-145.18;100.00;46681.88;6214012;23;20098;-79
2022/09/26 00:38:49;;;;;;;5.47;1.80;;;;;;;-145.18;100.00;46689.69;6214025;23;20506;-79
2022/09/26 00:41:16;;;;;;;8.27;2.40;;;;;;;-145.18;100.00;46687.75;6213660;23;20087;-79
2022/09/26 00:43:44;;;;;;;7.93;2.27;;;;;;;-145.18;100.00;46677.97;6213314;23;20009;-79
2022/09/26 00:46:28;;;;;;;9.13;1.87;;;;;;;-145.18;100.00;46685.78;6213447;23;20005;-80
2022/09/26 00:49:05;;;;;;;6.00;1.77;;;;;;;-145.18;100.00;46681.88;6213935;23;20008;-80
2022/09/26 00:51:34;;;;;;;6.27;1.80;;;;;;;-145.18;100.00;46697.50;6213390;23;20012;-80
2022/09/26 00:54:00;;;;;;;5.93;1.90;;;;;;;-145.18;100.00;46689.69;6213475;23;20024;-79
2022/09/26 00:56:32;;;;;;;5.40;1.83;;;;;;;-145.18;100.00;46683.84;6211794;23;20063;-80
2022/09/26 00:59:21;;;;;;;7.47;3.37;;;;;;;-145.18;100.00;46687.75;6212221;23;20056;-80
2022/09/26 01:01:49;;;;;;;8.87;2.50;;;;;;;-145.18;100.00;46689.69;6212370;23;20004;-80
2022/09/26 01:04:16;;;;;;;5.53;2.40;;;;;;;-145.18;100.00;46691.66;6213750;23;20019;-80
2022/09/26 01:06:43;;;;;;;8.33;2.50;;;;;;;-145.18;100.00;46683.84;6213034;23;20007;-79
2022/09/26 01:09:11;;;;;;;5.73;2.50;;;;;;;-145.18;100.00;46687.75;6213701;23;20009;-79
2022/09/26 01:11:39;;;;;;;8.90;2.80;;;;;;;-145.18;100.00;46687.75;6212946;23;20004;-80
2022/09/26 01:14:07;;;;;;;8.70;2.87;;;;;;;-145.18;100.00;46685.78;6213703;23;20079;-80
2022/09/26 01:16:33;;;;;;;5.90;2.90;;;;;;;-145.18;100.00;46693.59;6212627;23;20387;-79
2022/09/26 01:19:02;;;;;;;8.80;3.37;;;;;;;-145.18;100.00;46691.66;6213529;23;20007;-79
2022/09/26 01:21:39;;;;;;;5.77;2.97;;;;;;;-145.18;100.00;46687.75;6213318;23;20416;-79
2022/09/26 01:24:11;;;;;;;6.63;2.57;;;;;;;-145.18;100.00;46687.75;6213672;23;20005;-79
2022/09/26 01:27:00;;;;;;;11.10;3.23;;;;;;;-145.18;100.00;46691.66;6212629;23;20028;-79
2022/09/26 01:29:28;;;;;;;7.30;2.73;;;;;;;-145.18;100.00;46691.66;6213490;23;19996;-79
2022/09/26 01:32:50;;;;;;;18.60;3.83;;;;;;;-145.18;100.00;46693.59;6212800;23;20009;-79
2022/09/26 01:35:36;;;;;;;7.20;3.27;;;;;;;-145.18;100.00;46691.66;6213207;23;20079;-79
2022/09/26 01:38:26;;;;;;;7.60;3.10;;;;;;;-145.18;100.00;46685.78;6213049;23;20031;-79
2022/09/26 01:41:01;;;;;;;6.47;3.20;;;;;;;-145.18;100.00;46689.69;6213610;23;20015;-79
2022/09/26 01:43:55;;;;;;;10.40;3.90;;;;;;;-145.18;100.00;46695.56;6212996;23;20004;-79
2022/09/26 01:46:47;;;;;;;8.33;3.63;;;;;;;-145.18;100.00;46691.66;6204678;23;20015;-79
2022/09/26 01:49:30;;;;;;;9.60;3.27;;;;;;;-145.18;100.00;46701.41;6172736;23;20051;-80
2022/09/26 01:52:23;;;;;;;9.27;4.10;;;;;;;-145.18;100.00;46703.38;6212926;23;20108;-80
2022/09/26 01:54:54;;;;;;;14.10;4.67;;;;;;;-145.18;100.00;46693.59;6211376;23;20551;-80
2022/09/26 01:57:27;;;;;;;8.67;3.90;;;;;;;-145.18;100.00;46703.38;6211271;23;20012;-79
2022/09/26 01:59:58;;;;;;;6.83;3.07;;;;;;;-145.18;100.00;46703.38;6213415;23;20004;-79
2022/09/26 02:02:28;;;;;;;9.37;3.50;;;;;;;-145.18;100.00;46705.31;6196209;22;20016;-79
2022/09/26 02:04:59;;;;;;;10.17;3.90;;;;;;;-145.18;100.00;46707.28;6240952;22;20088;-79
2022/09/26 02:07:52;;;;;;;8.27;3.67;;;;;;;-145.18;100.00;46703.38;6243086;22;20453;-78
2022/09/26 02:10:21;;;;;;;9.03;3.80;;;;;;;-145.18;100.00;46705.31;6230603;23;20012;-78
2022/09/26 02:12:53;;;;;;;14.60;4.23;;;;;;;-145.18;100.00;46707.28;6243425;22;20006;-78
2022/09/26 02:15:24;;;;;;;7.83;3.20;;;;;;;-145.18;100.00;46705.31;6243776;22;20008;-79
2022/09/26 02:17:57;;;;;;;9.17;3.90;;;;;;;-145.18;100.00;46707.28;6243224;22;20026;-79
2022/09/26 02:20:33;;;;;;;11.27;3.57;;;;;;;-145.18;100.00;46701.41;6243745;22;20053;-79
2022/09/26 02:23:02;;;;;;;6.57;3.67;;;;;;;-145.18;100.00;46703.38;6241255;23;20031;-79
2022/09/26 02:25:29;;;;;;;7.90;3.50;;;;;;;-145.18;100.00;46703.38;6243207;22;20429;-80
2022/09/26 02:27:54;;;;;;;9.70;3.77;;;;;;;-145.18;100.00;46701.41;6242425;22;20066;-79
2022/09/26 02:30:20;;;;;;;8.00;3.33;;;;;;;-145.18;100.00;46703.38;6243055;22;20015;-78
2022/09/26 02:32:46;;;;;;;11.13;3.10;;;;;;;-145.18;100.00;46705.31;6239285;22;20031;-78
2022/09/26 02:37:56;;;;;;;10.93;3.80;;;;;;;-145.18;100.00;46703.38;6242209;23;20074;-78
2022/09/26 02:40:27;;;;;;;10.40;3.87;;;;;;;-145.18;100.00;46705.31;6243044;22;20381;-79
2022/09/26 02:43:22;;;;;;;7.27;3.30;;;;;;;-145.18;100.00;46707.28;6242823;22;20008;-79
2022/09/26 02:46:03;;;;;;;12.30;3.57;;;;;;;-145.18;100.00;46705.31;6230364;23;20008;-79
2022/09/26 02:48:39;;;;;;;8.40;3.70;;;;;;;-145.18;100.00;46703.38;6242136;23;20000;-78
2022/09/26 02:51:48;;;;;;;19.80;5.27;;;;;;;-145.18;100.00;46711.19;6242892;22;20062;-78
2022/09/26 02:54:24;;;;;;;10.23;4.00;;;;;;;-145.18;100.00;46703.38;6243056;22;20314;-78
2022/09/26 02:57:08;;;;;;;13.50;5.38;;;;;;;-145.18;100.00;46703.38;6242582;22;20000;-78
2022/09/26 02:59:58;;;;;;;7.97;3.70;;;;;;;-145.18;100.00;46703.38;6242835;22;20000;-79
2022/09/26 03:02:26;;;;;;;10.27;4.23;;;;;;;-145.18;100.00;46705.31;6242150;22;20012;-78
2022/09/26 03:05:13;;;;;;;11.03;4.20;;;;;;;-145.18;100.00;46705.31;6242787;22;20087;-78
2022/09/26 03:07:55;;;;;;;12.93;4.53;;;;;;;-145.18;100.00;46703.38;6242423;22;20443;-78
2022/09/26 03:10:22;;;;;;;12.40;4.60;;;;;;;-145.18;100.00;46705.31;6243107;22;20008;-78
2022/09/26 03:12:50;;;;;;;7.00;3.83;;;;;;;-145.18;100.00;46709.22;6240533;23;20023;-80
2022/09/26 03:15:17;;;;;;;12.17;5.07;;;;;;;-145.18;100.00;46703.38;6242863;22;20035;-80
2022/09/26 03:17:51;;;;;;;9.60;4.30;;;;;;;-145.18;100.00;46709.22;6242053;22;20012;-78
2022/09/26 03:20:20;;;;;;;11.30;4.60;;;;;;;-145.18;100.00;46707.28;6242813;22;20050;-79
2022/09/26 03:22:46;;;;;;;8.53;3.80;;;;;;;-145.18;100.00;46709.22;6242453;22;20092;-79
2022/09/26 03:25:20;;;;;;;8.70;3.90;;;;;;;-145.18;100.00;46707.28;6243177;22;20437;-81
2022/09/26 03:27:46;;;;;;;10.73;4.37;;;;;;;-145.18;100.00;46705.31;6242070;22;20011;-80
2022/09/26 03:30:13;;;;;;;8.00;3.70;;;;;;;-145.18;100.00;46709.22;6242772;22;20421;-81
2022/09/26 03:32:39;;;;;;;7.73;3.37;;;;;;;-145.18;100.00;46709.22;6242601;22;20021;-78
2022/09/26 03:35:05;;;;;;;8.43;3.43;;;;;;;-145.18;100.00;46711.19;6242859;22;20012;-80
2022/09/26 03:37:33;;;;;;;6.77;2.90;;;;;;;-145.18;100.00;46711.19;6242262;22;20379;-81
2022/09/26 03:40:01;;;;;;;8.07;3.03;;;;;;;-145.18;100.00;46711.19;6242694;22;20008;-81
2022/09/26 03:42:26;;;;;;;7.23;2.90;;;;;;;-145.18;100.00;46707.28;6242132;22;20012;-81
2022/09/26 03:44:52;;;;;;;9.17;3.30;;;;;;;-145.18;100.00;46707.28;6242233;22;20018;-81
2022/09/26 03:47:17;;;;;;;7.30;2.40;;;;;;;-145.18;100.00;46707.28;6242303;22;20098;-81
2022/09/26 03:49:42;;;;;;;15.63;3.17;;;;;;;-145.18;100.00;46711.19;6241309;23;20008;-79
2022/09/26 03:52:11;;;;;;;10.87;2.73;;;;;;;-145.18;100.00;46707.28;6241726;22;20004;-79
2022/09/26 03:54:37;;;;;;;6.47;2.40;;;;;;;-145.18;100.00;46707.28;6242981;22;20008;-79
2022/09/26 03:57:02;;;;;;;7.00;2.70;;;;;;;-145.18;100.00;46707.28;6242080;22;20035;-80
2022/09/26 03:59:28;;;;;;;5.77;2.63;;;;;;;-145.18;100.00;46713.13;6242693;22;20008;-81
2022/09/26 04:01:53;;;;;;;9.93;2.60;;;;;;;-145.18;100.00;46707.28;6242035;22;20016;-81
2022/09/26 04:04:19;;;;;;;11.80;2.80;;;;;;;-145.18;100.00;46707.28;6242821;22;20012;-81
2022/09/26 04:06:44;;;;;;;9.80;3.37;;;;;;;-145.18;100.00;46711.19;6242927;22;20099;-81
2022/09/26 04:09:10;;;;;;;9.57;2.87;;;;;;;-145.18;100.00;46711.19;6241932;22;20492;-80
2022/09/26 04:11:35;;;;;;;11.70;2.80;;;;;;;-145.18;100.00;46707.28;6242480;22;20432;-79
2022/09/26 04:14:01;;;;;;;10.13;2.57;;;;;;;-145.18;100.00;46707.28;6241148;22;20443;-80
2022/09/26 04:16:26;;;;;;;10.80;2.23;;;;;;;-145.18;100.00;46713.13;6242343;22;20011;-80
2022/09/26 04:18:56;;;;;;;7.47;2.33;;;;;;;-145.18;100.00;46707.28;6241725;22;20005;-80
2022/09/26 04:21:22;;;;;;;7.53;2.30;;;;;;;-145.18;100.00;46711.19;6242081;22;20551;-78
2022/09/26 04:23:49;;;;;;;7.63;2.07;;;;;;;-145.18;100.00;46709.22;6241982;22;20004;-80
2022/09/26 04:26:16;;;;;;;8.70;2.40;;;;;;;-145.18;100.00;46713.13;6242689;22;20062;-79
2022/09/26 04:28:42;;;;;;;6.83;2.10;;;;;;;-145.18;100.00;46709.22;6241993;22;20042;-80
2022/09/26 04:31:09;;;;;;;7.50;2.57;;;;;;;-145.18;100.00;46709.22;6240310;23;20011;-80
2022/09/26 04:33:36;;;;;;;8.70;2.30;;;;;;;-145.18;100.00;46709.22;6240368;23;20009;-78
2022/09/26 04:36:04;;;;;;;11.63;2.93;;;;;;;-145.18;100.00;46703.38;6241195;22;20062;-81
2022/09/26 04:38:33;;;;;;;7.20;2.27;;;;;;;-145.18;100.00;46705.31;6239952;23;20329;-81
2022/09/26 04:41:16;;;;;;;7.20;2.10;;;;;;;-145.18;100.00;46709.22;6241951;22;20083;-80
2022/09/26 04:43:41;;;;;;;7.10;2.43;;;;;;;-145.18;100.00;46711.19;6241718;22;20000;-81
2022/09/26 04:46:17;;;;;;;6.07;2.37;;;;;;;-145.18;100.00;46709.22;6242161;22;20019;-81
2022/09/26 04:48:43;;;;;;;5.80;2.13;;;;;;;-145.18;100.00;46709.22;6242211;22;20334;-81
2022/09/26 04:51:11;;;;;;;5.13;2.27;;;;;;;-145.18;100.00;46715.09;6242255;22;20023;-80
2022/09/26 04:53:40;;;;;;;3.87;2.00;;;;;;;-145.18;100.00;46703.38;6241883;22;19996;-81
2022/09/26 04:56:08;;;;;;;7.07;1.93;;;;;;;-145.18;100.00;46707.28;6243191;22;20004;-80
2022/09/26 04:58:35;;;;;;;6.10;2.17;;;;;;;-145.18;100.00;46717.03;6243930;22;20012;-80
2022/09/26 05:01:02;;;;;;;5.03;2.10;;;;;;;-145.18;100.00;46709.22;6244281;22;20317;-80
2022/09/26 05:03:28;;;;;;;5.17;2.13;;;;;;;-145.18;100.00;46711.19;6243710;22;20024;-81
2022/09/26 05:05:54;;;;;;;10.20;3.73;;;;;;;-145.18;100.00;46711.19;6244148;22;20012;-80
2022/09/26 05:08:19;;;;;;;9.50;2.70;;;;;;;-145.18;100.00;46711.19;6243616;22;20008;-80
2022/09/26 05:10:51;;;;;;;5.67;2.27;;;;;;;-145.18;100.00;46711.19;6244151;22;20008;-80
2022/09/26 05:13:16;;;;;;;5.67;2.30;;;;;;;-145.18;100.00;46715.09;6243990;22;20005;-81
2022/09/26 05:15:42;;;;;;;7.57;2.33;;;;;;;-145.18;100.00;46717.03;6242722;23;20019;-81
2022/09/26 05:18:10;;;;;;;6.47;2.50;;;;;;;-145.18;100.00;46709.22;6243227;22;20008;-80
2022/09/26 05:20:36;;;;;;;7.43;2.50;;;;;;;-145.18;100.00;46711.19;6244256;22;20008;-80
2022/09/26 05:23:03;;;;;;;5.83;2.60;;;;;;;-145.18;100.00;46707.28;6243411;22;20008;-80
2022/09/26 05:28:18;;;;;;;6.87;2.57;;;;;;;-145.18;100.00;46709.22;6242823;23;20011;-81
2022/09/26 05:30:43;;;;;;;7.17;2.53;;;;;;;-145.18;100.00;46709.22;6242452;23;20245;-81
2022/09/26 05:33:12;;;;;;;7.43;2.60;;;;;;;-145.18;100.00;46703.38;6242983;22;20004;-81
2022/09/26 05:35:38;;;;;;;8.93;3.20;;;;;;;-145.18;100.00;46697.50;6244240;22;20039;-83
2022/09/26 05:38:04;;;;;;;7.97;3.00;;;;;;;-145.18;100.00;46705.31;6238814;22;20221;-83
2022/09/26 05:43:15;;;;;;;7.67;2.90;;;;;;;-145.18;100.00;46697.50;6242256;23;20031;-82
2022/09/26 05:45:41;;;;;;;8.67;3.00;;;;;;;-145.18;100.00;46697.50;6242072;23;20020;-83
2022/09/26 05:48:07;;;;;;;13.07;3.10;;;;;;;-145.18;100.00;46687.75;6241152;22;20319;-83
2022/09/26 05:50:33;;;;;;;8.47;3.87;;;;;;;-145.18;100.00;46685.78;6243861;22;20004;-81
2022/09/26 05:52:59;;;;;;;6.77;2.90;;;;;;;-145.18;100.00;46695.56;6243722;22;20062;-81
2022/09/26 05:55:26;;;;;;;6.50;2.70;;;;;;;-145.18;100.00;46689.69;6244408;22;20411;-81
2022/09/26 05:57:59;;;;;;;9.63;2.90;;;;;;;-145.18;100.00;46691.66;6216580;23;20350;-82
2022/09/26 06:00:26;;;;;;;6.57;2.77;;;;;;;-145.18;100.00;46685.78;6242612;22;20008;-82
2022/09/26 06:03:01;;;;;;;8.63;3.23;;;;;;;-145.18;100.00;46691.66;6243084;22;20087;-82
2022/09/26 06:05:27;;;;;;;8.73;3.28;;;;;;;-145.18;100.00;46685.78;6241340;22;20361;-83
2022/09/26 06:07:52;;;;;;;11.33;3.43;;;;;;;-145.18;100.00;46685.78;6240689;23;20038;-83
2022/09/26 06:10:19;;;;;;;7.07;2.77;;;;;;;-145.18;100.00;46695.56;6243062;22;20337;-83
2022/09/26 06:12:44;;;;;;;6.30;2.67;;;;;;;-145.18;100.00;46687.75;6241821;22;20008;-81
2022/09/26 06:15:10;;;;;;;6.40;3.17;;;;;;;-145.18;100.00;46687.75;6241822;23;20045;-83
2022/09/26 06:17:35;;;;;;;7.50;3.20;;;;;;;-145.18;100.00;46691.66;6243129;22;20071;-81
2022/09/26 06:20:03;;;;;;;7.10;2.70;;;;;;;-145.18;100.00;46693.59;6243622;22;20015;-83
2022/09/26 06:22:28;;;;;;;5.20;2.63;;;;;;;-145.18;100.00;46689.69;6243298;22;20340;-83
2022/09/26 06:24:53;;;;;;;5.07;2.43;;;;;;;-145.18;100.00;46685.78;6242952;22;20008;-83
2022/09/26 06:27:21;;;;;;;6.07;2.60;;;;;;;-145.18;100.00;46687.75;6240242;23;20034;-83
2022/09/26 06:29:47;;;;;;;11.03;2.87;;;;;;;-145.18;100.00;46687.75;6243234;22;20000;-83
2022/09/26 06:32:12;;;;;;;7.50;2.67;;;;;;;-145.18;100.00;46689.69;6243462;22;20087;-83
2022/09/26 06:34:37;;;;;;;6.43;2.77;;;;;;;-145.18;100.00;46687.75;6243171;22;20016;-84
2022/09/26 06:37:03;;;;;;;6.97;2.23;;;;;;;-145.18;100.00;46691.66;6243086;22;20008;-83
2022/09/26 06:39:34;;;;;;;7.70;2.57;;;;;;;-145.18;100.00;46693.59;6242914;22;20004;-82
2022/09/26 06:42:06;;;;;;;7.63;2.70;;;;;;;-145.18;100.00;46687.75;6243325;22;20000;-81
2022/09/26 06:44:32;;;;;;;9.43;3.80;;;;;;;-145.18;100.00;46685.78;6242634;22;20015;-84
2022/09/26 06:47:01;;;;;;;9.73;2.53;;;;;;;-145.18;100.00;46685.78;6243106;22;20094;-81
2022/09/26 06:49:27;;;;;;;6.13;2.70;;;;;;;-145.18;100.00;46693.59;6242226;22;20066;-83
2022/09/26 06:51:53;;;;;;;6.47;2.93;;;;;;;-145.18;100.00;46697.50;6242797;22;20086;-83
2022/09/26 06:54:18;;;;;;;5.27;2.57;;;;;;;-145.18;100.00;46689.69;6243133;22;20038;-83
2022/09/26 06:56:43;;;;;;;9.83;2.60;;;;;;;-145.18;100.00;46693.59;6243278;22;20576;-81
2022/09/26 06:59:09;;;;;;;6.53;2.63;;;;;;;-145.18;100.00;46691.66;6242587;22;20005;-83
2022/09/26 07:01:35;;;;;;;5.03;2.43;;;;;;;-145.18;100.00;46697.50;6242635;22;20061;-83
2022/09/26 07:04:01;;;;;;;9.07;3.30;;;;;;;-145.18;100.00;46691.66;6240460;23;20027;-84
2022/09/26 07:06:26;;;;;;;11.50;4.40;;;;;;;-145.18;100.00;46697.50;6242372;22;20433;-83
2022/09/26 07:08:52;;;;;;;5.73;2.30;;;;;;;-145.18;100.00;46693.59;6242209;23;20075;-84
2022/09/26 07:11:17;;;;;;;5.30;2.80;;;;;;;-145.18;100.00;46695.56;6242971;22;20016;-84
2022/09/26 07:13:44;;;;;;;6.47;2.73;;;;;;;-145.18;100.00;46697.50;6242622;22;20099;-84
2022/09/26 07:16:11;;;;;;;9.03;2.80;;;;;;;-145.18;100.00;46697.50;6240975;23;20012;-84
2022/09/26 07:18:37;;;;;;;6.80;2.57;;;;;;;-145.18;100.00;46703.38;6242420;22;20008;-84
2022/09/26 07:21:06;;;;;;;8.07;2.63;;;;;;;-145.18;100.00;46705.31;6241686;22;20012;-83
2022/09/26 07:23:32;;;;;;;5.73;2.60;;;;;;;-145.18;100.00;46685.78;6242669;22;20009;-83
2022/09/26 07:25:58;;;;;;;8.57;2.63;;;;;;;-145.18;100.00;46695.56;6240842;23;20046;-84
2022/09/26 07:28:24;;;;;;;7.50;2.80;;;;;;;-145.18;100.00;46693.59;6241956;22;20004;-82
2022/09/26 07:30:50;;;;;;;7.00;2.70;;;;;;;-145.18;100.00;46691.66;6243044;22;20004;-83
2022/09/26 07:33:15;;;;;;;10.10;2.90;;;;;;;-145.18;100.00;46695.56;6241809;22;20425;-83
2022/09/26 07:35:43;;;;;;;6.87;2.33;;;;;;;-145.18;100.00;46687.75;6241601;23;20040;-83
2022/09/26 07:38:09;;;;;;;5.13;2.60;;;;;;;-145.18;100.00;46687.75;6242093;22;20015;-83
2022/09/26 07:40:34;;;;;;;8.23;3.00;;;;;;;-145.18;100.00;46695.56;6242656;22;20008;-84
2022/09/26 07:43:00;;;;;;;9.27;2.30;;;;;;;-145.18;100.00;46689.69;6240960;22;20046;-83
2022/09/26 07:50:58;;;;;;;9.43;2.93;;;;;;;-145.18;100.00;46697.50;6241769;23;20063;-83
2022/09/26 07:53:25;;;;;;;7.23;2.27;;;;;;;-145.18;100.00;46697.50;6242547;22;20324;-83
2022/09/26 07:56:04;;;;;;;4.40;1.97;;;;;;;-145.18;100.00;46693.59;6242535;22;20062;-82
2022/09/26 07:58:34;;;;;;;7.00;2.20;;;;;;;-145.18;100.00;46693.59;6242570;22;20014;-82
2022/09/26 08:01:01;;;;;;;4.73;2.20;;;;;;;-145.18;100.00;46693.59;6242676;22;20041;-82
2022/09/26 08:03:28;;;;;;;13.80;2.00;;;;;;;-145.18;100.00;46689.69;6241679;22;20016;-82
2022/09/26 08:05:55;;;;;;;10.23;2.60;;;;;;;-145.18;100.00;46691.66;6242577;22;20008;-82
2022/09/26 08:08:20;;;;;;;6.83;2.10;;;;;;;-145.18;100.00;46687.75;6242205;22;20091;-82
2022/09/26 08:10:46;;;;;;;6.93;2.17;;;;;;;-145.18;100.00;46693.59;6242875;22;20023;-82
2022/09/26 08:13:11;;;;;;;9.67;2.57;;;;;;;-145.18;100.00;46695.56;6241305;22;20019;-82
2022/09/26 08:15:37;;;;;;;6.23;2.10;;;;;;;-145.18;100.00;46697.50;6241359;22;20424;-82
2022/09/26 08:18:02;;;;;;;9.63;2.03;;;;;;;-145.18;100.00;46695.56;6241827;22;20016;-83
2022/09/26 08:20:28;;;;;;;9.73;2.17;;;;;;;-145.18;100.00;46691.66;6242552;22;20008;-83
2022/09/26 08:22:56;;;;;;;9.07;2.10;;;;;;;-145.18;100.00;46691.66;6240415;23;20329;-82
2022/09/26 08:25:21;;;;;;;8.23;2.20;;;;;;;-145.18;100.00;46697.50;6242692;22;20091;-81
2022/09/26 08:27:49;;;;;;;7.63;2.33;;;;;;;-145.18;100.00;46691.66;6242042;22;20015;-82
2022/09/26 08:30:15;;;;;;;6.90;2.10;;;;;;;-145.18;100.00;46695.56;6242469;22;20011;-82
2022/09/26 08:32:40;;;;;;;6.73;2.17;;;;;;;-145.18;100.00;46695.56;6244478;22;20043;-83
2022/09/26 08:35:07;;;;;;;12.60;3.30;;;;;;;-145.18;100.00;46687.75;6243663;22;20421;-83
2022/09/26 08:37:32;;;;;;;10.93;2.80;;;;;;;-145.18;100.00;46687.75;6245162;22;20016;-82
2022/09/26 08:39:59;;;;;;;8.33;2.40;;;;;;;-145.18;100.00;46683.84;6244228;22;20008;-82
2022/09/26 08:42:33;;;;;;;9.03;2.70;;;;;;;-145.18;100.00;46681.88;6244648;22;20008;-82
2022/09/26 08:48:29;;;;;;;8.20;2.40;;;;;;;-145.18;100.00;46676.03;6243766;23;20065;-81
2022/09/26 08:51:10;;;;;;;11.80;3.13;;;;;;;-145.18;100.00;46677.97;6244167;22;20535;-81
2022/09/26 08:53:46;;;;;;;8.00;2.13;;;;;;;-145.18;100.00;46679.94;6244249;22;20543;-81
2022/09/26 08:56:20;;;;;;;6.53;2.40;;;;;;;-145.18;100.00;46677.97;6243152;22;20496;-83
2022/09/26 08:58:51;;;;;;;10.67;3.87;;;;;;;-145.18;100.00;46674.06;6243559;22;20079;-83
2022/09/26 09:01:28;;;;;;;7.33;3.10;;;;;;;-145.18;100.00;46672.13;6244714;22;20083;-83
2022/09/26 09:04:02;;;;;;;10.67;2.63;;;;;;;-145.18;100.00;46672.13;6243689;22;20027;-82
2022/09/26 09:06:28;;;;;;;7.87;3.03;;;;;;;-145.18;100.00;46664.31;6244299;22;20008;-80
2022/09/26 09:08:55;;;;;;;6.67;2.80;;;;;;;-145.18;100.00;46676.03;6244231;22;20008;-79
2022/09/26 09:11:29;;;;;;;8.37;2.83;;;;;;;-145.18;100.00;46670.16;6244638;22;20433;-79
2022/09/26 09:14:27;;;;;;;7.60;2.67;;;;;;;-145.18;100.00;46668.22;6244155;23;20506;-80
2022/09/26 09:17:01;;;;;;;6.97;2.53;;;;;;;-145.18;100.00;46672.13;6244516;22;20426;-79
2022/09/26 09:20:06;;;;;;;7.80;2.83;;;;;;;-145.18;100.00;46664.31;6244122;22;20012;-80
2022/09/26 09:22:43;;;;;;;7.27;2.70;;;;;;;-145.18;100.00;46664.31;6196753;23;20036;-82
2022/09/26 09:25:17;;;;;;;9.70;3.10;;;;;;;-145.18;100.00;46666.25;6243308;22;20004;-82
2022/09/26 09:28:01;;;;;;;9.27;3.00;;;;;;;-145.18;100.00;46668.22;6243654;22;20007;-81
2022/09/26 09:30:35;;;;;;;10.47;3.10;;;;;;;-145.18;100.00;46666.25;6243802;23;20000;-83
2022/09/26 09:33:12;;;;;;;8.97;3.03;;;;;;;-145.18;100.00;46664.31;6242438;22;20043;-84
2022/09/26 09:35:50;;;;;;;8.60;2.87;;;;;;;-145.18;100.00;46662.34;6244581;22;20427;-83
2022/09/26 09:38:19;;;;;;;5.93;2.93;;;;;;;-145.18;100.00;46674.06;6243727;22;20467;-82
2022/09/26 09:41:06;;;;;;;11.97;3.50;;;;;;;-145.18;100.00;46666.25;6244116;22;20417;-83
2022/09/26 09:43:42;;;;;;;12.03;2.97;;;;;;;-145.18;100.00;46662.34;6244108;22;20016;-82
2022/09/26 09:46:22;;;;;;;13.93;3.87;;;;;;;-145.18;100.00;46662.34;6244006;22;20451;-81
2022/09/26 09:48:52;;;;;;;10.90;3.50;;;;;;;-145.18;100.00;46656.50;6244122;22;20033;-82
2022/09/26 09:51:38;;;;;;;13.27;3.50;;;;;;;-145.18;100.00;46656.50;6244039;22;20001;-81
2022/09/26 09:54:41;;;;;;;8.07;3.23;;;;;;;-145.18;100.00;46654.53;6242947;22;20333;-81
2022/09/26 09:57:41;;;;;;;14.93;3.80;;;;;;;-145.18;100.00;46654.53;6244027;23;20070;-81
2022/09/26 10:00:16;;;;;;;10.17;3.57;;;;;;;-145.18;100.00;46656.50;6242961;22;20043;-82
2022/09/26 10:02:45;;;;;;;11.10;3.78;;;;;;;-145.18;100.00;46652.59;6238454;22;20038;-82
2022/09/26 10:05:29;;;;;;;12.67;3.53;;;;;;;-145.18;100.00;46656.50;6239319;22;20008;-80
2022/09/26 10:07:56;;;;;;;4.87;3.43;;;;;;;-145.18;100.00;46654.53;6242916;22;20451;-81
2022/09/26 10:10:35;;;;;;;12.23;4.23;;;;;;;-145.18;100.00;46650.63;6243751;22;20003;-81
2022/09/26 10:13:01;;;;;;;11.00;4.13;;;;;;;-145.18;100.00;46654.53;6243285;22;20441;-82
2022/09/26 10:15:26;;;;;;;7.03;4.53;;;;;;;-145.18;100.00;46650.63;6242310;22;20008;-83
2022/09/26 10:18:07;;;;;;;9.40;4.23;;;;;;;-145.18;100.00;46650.63;6243894;22;20008;-82
2022/09/26 10:20:34;;;;;;;11.97;5.90;;;;;;;-145.18;100.00;46648.69;6241543;22;20004;-83
2022/09/26 10:23:02;;;;;;;13.17;4.23;;;;;;;-145.18;100.00;46652.59;6243331;22;20004;-82
2022/09/26 10:25:27;;;;;;;10.67;5.23;;;;;;;-145.18;100.00;46642.81;6242566;22;20051;-82
2022/09/26 10:27:55;;;;;;;13.03;5.30;;;;;;;-145.18;100.00;46644.78;6243125;22;20049;-82
2022/09/26 10:30:25;;;;;;;11.30;5.50;;;;;;;-145.18;100.00;46644.78;6242960;22;20408;-83
2022/09/26 10:32:54;;;;;;;9.90;5.00;;;;;;;-145.18;100.00;46638.91;6243342;22;20007;-82
2022/09/26 10:35:39;;;;;;;6.83;5.30;;;;;;;-145.18;100.00;46644.78;6242227;22;20000;-82
2022/09/26 10:38:20;;;;;;;7.87;4.93;;;;;;;-145.18;100.00;46640.88;6242824;22;20345;-82
2022/09/26 10:40:58;;;;;;;10.10;4.97;;;;;;;-145.18;100.00;46640.88;6243265;22;20306;-83
2022/09/26 10:43:27;;;;;;;10.30;4.43;;;;;;;-145.18;100.00;46642.81;6242233;22;20031;-82
2022/09/26 10:46:02;;;;;;;9.80;4.20;;;;;;;-145.18;100.00;46638.91;6241533;23;20008;-83
2022/09/26 10:48:35;;;;;;;7.23;4.00;;;;;;;-145.18;100.00;46640.88;6240663;23;20100;-83
2022/09/26 10:51:01;;;;;;;11.60;4.00;;;;;;;-145.18;100.00;46638.91;6242972;22;20448;-83
2022/09/26 10:53:35;;;;;;;9.53;4.77;;;;;;;-145.18;100.00;46638.91;6241011;22;20008;-81
2022/09/26 10:56:09;;;;;;;9.77;4.27;;;;;;;-145.18;100.00;46638.91;6242819;22;20036;-80
2022/09/26 10:58:40;;;;;;;9.57;4.30;;;;;;;-145.18;100.00;46640.88;6240113;22;20004;-81
2022/09/26 11:01:15;;;;;;;6.43;3.67;;;;;;;-145.18;100.00;46636.94;6242672;22;20063;-81
2022/09/26 11:03:43;;;;;;;7.37;3.60;;;;;;;-145.18;100.00;46636.94;6242173;22;20125;-82
2022/09/26 11:06:34;;;;;;;6.80;4.10;;;;;;;-145.18;100.00;46636.94;6242202;22;20008;-81
2022/09/26 11:09:02;;;;;;;8.03;3.90;;;;;;;-145.18;100.00;46640.88;6241063;22;20433;-82
2022/09/26 11:11:35;;;;;;;6.27;3.70;;;;;;;-145.18;100.00;46636.94;6242043;22;20011;-82
2022/09/26 11:14:07;;;;;;;6.10;4.43;;;;;;;-145.18;100.00;46636.94;6241478;22;20016;-83
2022/09/26 11:16:42;;;;;;;9.53;4.70;;;;;;;-145.18;100.00;46640.88;6240559;23;20012;-84
2022/09/26 11:19:25;;;;;;;7.07;4.57;;;;;;;-145.18;100.00;46638.91;6241689;22;20416;-83
2022/09/26 11:22:05;;;;;;;7.00;4.20;;;;;;;-145.18;100.00;46636.94;6242669;22;20012;-84
2022/09/26 11:24:58;;;;;;;6.60;4.80;;;;;;;-145.18;100.00;46636.94;6240492;23;20019;-83
2022/09/26 11:27:27;;;;;;;9.77;5.17;;;;;;;-145.18;100.00;46635.00;6240793;23;20004;-83
2022/09/26 11:29:57;;;;;;;8.90;4.93;;;;;;;-145.18;100.00;46640.88;6241775;22;20011;-83
2022/09/26 11:32:51;;;;;;;9.03;5.00;;;;;;;-145.18;100.00;46638.91;6242395;22;20078;-83
2022/09/26 11:35:32;;;;;;;6.63;5.63;;;;;;;-145.18;100.00;46635.00;6238971;23;20004;-83
2022/09/26 11:38:04;;;;;;;9.50;6.27;;;;;;;-145.18;100.00;46638.91;6242993;22;20007;-83
2022/09/26 11:40:51;;;;;;;6.50;5.47;;;;;;;-145.18;100.00;46640.88;6242535;22;20004;-83
2022/09/26 11:43:29;;;;;;;9.50;6.60;;;;;;;-145.18;100.00;46636.94;6243075;22;20080;-83